createdAt,value
2022-11-14T00:02:43.069Z,86.58
2022-11-14T00:05:29.039Z,86.81
2022-11-14T00:08:39.870Z,86.87
2022-11-14T00:11:25.569Z,86.67
2022-11-14T00:23:29.825Z,87.58
2022-11-14T00:27:12.876Z,87.98
2022-11-14T00:34:34.162Z,87.27
2022-11-14T00:37:20.052Z,87.50
2022-11-14T00:40:06.204Z,87.27
2022-11-14T00:42:51.955Z,88.13
2022-11-14T00:45:37.966Z,87.86
2022-11-14T00:48:23.913Z,88.93
2022-11-14T00:51:09.540Z,88.32
2022-11-14T00:53:55.404Z,88.98
2022-11-14T00:56:41.268Z,88.03
2022-11-14T00:59:26.825Z,88.30
2022-11-14T01:02:12.723Z,87.58
2022-11-14T01:04:58.347Z,87.15
2022-11-14T01:07:44.189Z,87.99
2022-11-14T01:10:29.957Z,89.59
2022-11-14T01:13:16.919Z,90.62
2022-11-14T01:16:02.964Z,90.98
2022-11-14T01:18:48.703Z,91.05
2022-11-14T01:21:35.060Z,90.56
2022-11-14T01:24:21.021Z,90.64
2022-11-14T01:27:06.900Z,90.71
2022-11-14T01:29:52.970Z,90.36
2022-11-14T01:32:38.756Z,89.83
2022-11-14T01:35:24.612Z,87.77
2022-11-14T01:38:14.885Z,87.86
2022-11-14T01:41:00.808Z,88.04
2022-11-14T01:43:46.648Z,88.88
2022-11-14T01:46:38.026Z,89.12
2022-11-14T01:49:27.197Z,89.15
2022-11-14T01:52:18.361Z,88.97
2022-11-14T01:55:09.126Z,87.57
2022-11-14T01:57:55.655Z,88.14
2022-11-14T02:00:42.066Z,87.58
2022-11-14T02:03:28.120Z,87.74
2022-11-14T02:06:17.280Z,87.55
2022-11-14T02:09:05.548Z,88.17
2022-11-14T02:11:52.213Z,88.32
2022-11-14T02:14:38.108Z,89.09
2022-11-14T02:17:29.941Z,88.30
2022-11-14T02:20:31.696Z,88.29
2022-11-14T02:23:26.786Z,88.17
2022-11-14T02:26:12.577Z,89.55
2022-11-14T02:28:58.285Z,89.45
2022-11-14T02:31:43.877Z,89.11
2022-11-14T02:34:30.083Z,88.60
2022-11-14T02:37:16.162Z,88.35
2022-11-14T02:40:01.962Z,87.88
2022-11-14T02:42:47.664Z,88.68
2022-11-14T02:45:33.570Z,88.54
2022-11-14T02:48:19.472Z,88.77
2022-11-14T02:51:05.119Z,88.62
2022-11-14T02:53:50.938Z,88.43
2022-11-14T02:56:36.583Z,88.18
2022-11-14T02:59:22.619Z,88.39
2022-11-14T03:02:08.608Z,89.75
2022-11-14T03:04:54.685Z,89.65
2022-11-14T03:07:40.791Z,89.60
2022-11-14T03:10:26.710Z,88.98
2022-11-14T03:13:12.296Z,88.86
2022-11-14T03:15:58.119Z,88.54
2022-11-14T03:18:43.840Z,87.82
2022-11-14T03:21:29.571Z,88.35
2022-11-14T03:24:15.322Z,88.02
2022-11-14T03:27:01.527Z,87.47
2022-11-14T03:29:50.505Z,87.06
2022-11-14T03:32:36.375Z,86.95
2022-11-14T03:35:22.055Z,87.37
2022-11-14T03:38:07.773Z,88.00
2022-11-14T03:40:53.462Z,87.92
2022-11-14T03:43:39.021Z,89.56
2022-11-14T03:46:24.707Z,89.99
2022-11-14T03:49:10.886Z,89.77
2022-11-14T03:51:56.859Z,88.58
2022-11-14T03:54:42.646Z,88.97
2022-11-14T03:57:28.219Z,89.13
2022-11-14T04:00:13.919Z,88.94
2022-11-14T04:02:59.872Z,89.77
2022-11-14T04:05:45.847Z,89.95
2022-11-14T04:08:31.988Z,88.59
2022-11-14T04:11:19.246Z,88.18
2022-11-14T04:14:05.239Z,88.79
2022-11-14T04:16:50.896Z,88.72
2022-11-14T04:19:37.114Z,88.70
2022-11-14T04:22:23.134Z,88.25
2022-11-14T04:25:09.624Z,88.30
2022-11-14T04:27:55.323Z,88.33
2022-11-14T04:30:41.555Z,89.49
2022-11-14T04:33:27.269Z,89.40
2022-11-14T04:36:13.460Z,88.77
2022-11-14T04:38:59.174Z,88.77
2022-11-14T04:41:45.654Z,89.75
2022-11-14T04:44:31.363Z,89.17
2022-11-14T04:47:16.938Z,90.12
2022-11-14T04:50:03.841Z,90.30
2022-11-14T04:52:53.715Z,90.51
2022-11-14T04:55:39.464Z,90.58
2022-11-14T04:58:25.597Z,90.15
2022-11-14T05:01:12.154Z,90.27
2022-11-14T05:03:58.201Z,89.76
2022-11-14T05:06:44.163Z,88.60
2022-11-14T05:09:29.900Z,89.33
2022-11-14T05:12:15.852Z,89.67
2022-11-14T05:15:01.490Z,89.00
2022-11-14T05:17:47.166Z,89.44
2022-11-14T05:20:33.298Z,91.11
2022-11-14T05:23:20.887Z,90.99
2022-11-14T05:26:09.013Z,92.12
2022-11-14T05:28:54.714Z,91.66
2022-11-14T05:31:40.431Z,91.57
2022-11-14T05:34:26.599Z,92.10
2022-11-14T05:37:12.771Z,91.22
2022-11-14T05:39:58.561Z,90.32
2022-11-14T05:42:44.296Z,92.04
2022-11-14T05:45:31.150Z,92.62
2022-11-14T05:48:16.844Z,91.57
2022-11-14T05:51:04.503Z,91.58
2022-11-14T05:53:50.397Z,91.38
2022-11-14T05:56:35.983Z,91.00
2022-11-14T05:59:21.919Z,90.32
2022-11-14T06:02:08.046Z,89.31
2022-11-14T06:04:53.998Z,90.43
2022-11-14T06:07:39.951Z,92.17
2022-11-14T06:10:26.218Z,91.95
2022-11-14T06:13:11.863Z,92.49
2022-11-14T06:16:08.405Z,91.98
2022-11-14T06:18:54.310Z,92.34
2022-11-14T06:21:39.987Z,91.85
2022-11-14T06:24:25.636Z,92.13
2022-11-14T06:27:25.776Z,91.75
2022-11-14T06:30:11.907Z,91.84
2022-11-14T06:34:01.951Z,91.99
2022-11-14T06:36:47.604Z,92.16
2022-11-14T06:39:33.545Z,91.87
2022-11-14T06:42:19.353Z,91.01
2022-11-14T06:45:05.288Z,90.88
2022-11-14T06:47:51.189Z,90.58
2022-11-14T06:50:36.965Z,90.61
2022-11-14T06:53:23.374Z,90.75
2022-11-14T06:56:12.008Z,91.26
2022-11-14T06:58:58.209Z,92.23
2022-11-14T07:01:45.037Z,92.72
2022-11-14T07:04:31.995Z,92.79
2022-11-14T07:07:17.851Z,92.27
2022-11-14T07:10:04.008Z,91.56
2022-11-14T07:12:50.408Z,91.60
2022-11-14T07:15:36.408Z,91.81
2022-11-14T07:18:21.950Z,91.98
2022-11-14T07:21:07.622Z,92.81
2022-11-14T07:23:53.545Z,92.20
2022-11-14T07:26:39.537Z,91.25
2022-11-14T07:29:25.588Z,91.04
2022-11-14T07:32:11.119Z,90.34
2022-11-14T07:35:01.933Z,89.85
2022-11-14T07:37:48.987Z,90.31
2022-11-14T07:40:34.813Z,89.96
2022-11-14T07:43:20.599Z,89.20
2022-11-14T07:46:17.302Z,88.59
2022-11-14T07:49:03.355Z,88.14
2022-11-14T07:51:49.094Z,86.64
2022-11-14T07:54:34.917Z,86.76
2022-11-14T07:57:20.961Z,86.67
2022-11-14T08:00:10.755Z,87.82
2022-11-14T08:02:56.850Z,87.30
2022-11-14T08:05:42.733Z,87.54
2022-11-14T08:08:29.331Z,89.21
2022-11-14T08:11:31.833Z,88.07
2022-11-14T08:14:20.762Z,87.19
2022-11-14T08:17:07.039Z,86.94
2022-11-14T08:19:52.733Z,87.58
2022-11-14T08:22:39.321Z,88.18
2022-11-14T08:25:25.167Z,88.31
2022-11-14T08:28:10.745Z,87.63
2022-11-14T08:31:01.984Z,87.06
2022-11-14T08:33:50.354Z,86.35
2022-11-14T08:36:36.277Z,85.22
2022-11-14T08:39:22.391Z,86.33
2022-11-14T08:42:08.584Z,87.53
2022-11-14T08:44:54.397Z,88.16
2022-11-14T08:47:40.063Z,88.78
2022-11-14T08:50:26.237Z,89.03
2022-11-14T08:53:12.117Z,89.24
2022-11-14T08:56:05.551Z,88.91
2022-11-14T08:58:54.869Z,88.78
2022-11-14T09:01:41.073Z,87.82
2022-11-14T09:04:26.701Z,83.90
2022-11-14T09:07:12.608Z,83.66
2022-11-14T09:10:00.616Z,83.87
2022-11-14T09:12:57.394Z,83.77
2022-11-14T09:15:44.566Z,85.06
2022-11-14T09:18:31.230Z,85.44
2022-11-14T09:21:17.355Z,84.86
2022-11-14T09:24:02.967Z,85.16
2022-11-14T09:26:56.447Z,86.32
2022-11-14T09:29:43.259Z,87.08
2022-11-14T09:35:38.902Z,87.26
2022-11-14T09:38:25.065Z,86.64
2022-11-14T09:41:27.019Z,86.94
2022-11-14T09:44:39.080Z,86.46
2022-11-14T09:47:46.856Z,87.18
2022-11-14T09:50:40.632Z,87.24
2022-11-14T09:53:32.451Z,86.60
2022-11-14T09:56:26.753Z,86.86
2022-11-14T09:59:14.155Z,86.23
2022-11-14T10:02:17.065Z,86.18
2022-11-14T10:06:02.108Z,85.39
2022-11-14T10:09:24.860Z,85.34
2022-11-14T10:12:37.650Z,85.36
2022-11-14T10:15:34.009Z,85.51
2022-11-14T10:18:33.543Z,85.67
2022-11-14T10:21:27.100Z,84.44
2022-11-14T10:24:44.569Z,83.75
2022-11-14T10:27:36.361Z,83.85
2022-11-14T10:30:22.536Z,84.01
2022-11-14T10:33:42.294Z,83.12
2022-11-14T10:37:01.172Z,83.87
2022-11-14T10:39:50.406Z,84.69
2022-11-14T10:42:38.743Z,84.71
2022-11-14T10:45:33.383Z,83.22
2022-11-14T10:48:39.901Z,82.89
2022-11-14T10:51:44.390Z,82.17
2022-11-14T10:54:46.735Z,82.75
2022-11-14T10:57:33.010Z,82.36
2022-11-14T11:00:22.933Z,83.19
2022-11-14T11:03:09.058Z,82.45
2022-11-14T11:06:00.348Z,81.94
2022-11-14T11:09:04.583Z,82.26
2022-11-14T11:11:58.639Z,82.23
2022-11-14T11:14:45.690Z,82.94
2022-11-14T11:17:38.494Z,83.31
2022-11-14T11:20:39.099Z,83.22
2022-11-14T11:23:26.818Z,83.42
2022-11-14T11:26:24.198Z,84.07
2022-11-14T11:29:09.840Z,83.22
2022-11-14T11:32:00.713Z,83.38
2022-11-14T11:34:46.773Z,84.20
2022-11-14T11:37:55.116Z,84.68
2022-11-14T11:40:43.518Z,84.79
2022-11-14T11:43:39.860Z,84.29
2022-11-14T11:46:35.527Z,83.46
2022-11-14T11:49:27.338Z,83.08
2022-11-14T11:53:01.067Z,82.70
2022-11-14T11:55:51.188Z,83.17
2022-11-14T11:58:58.924Z,82.56
2022-11-14T12:01:44.837Z,81.47
2022-11-14T12:04:30.966Z,81.65
2022-11-14T12:07:19.567Z,81.98
2022-11-14T12:10:19.985Z,83.30
2022-11-14T12:13:24.452Z,83.26
2022-11-14T12:16:28.542Z,83.87
2022-11-14T12:19:55.241Z,82.61
2022-11-14T12:23:19.838Z,83.39
2022-11-14T12:26:13.878Z,82.99
2022-11-14T12:29:32.345Z,82.57
2022-11-14T12:32:40.027Z,82.54
2022-11-14T12:35:30.014Z,82.58
2022-11-14T12:38:19.534Z,83.14
2022-11-14T12:41:07.508Z,82.58
2022-11-14T12:43:53.494Z,82.92
2022-11-14T12:47:04.551Z,82.61
2022-11-14T12:49:53.648Z,82.51
2022-11-14T12:52:54.069Z,83.24
2022-11-14T12:55:45.881Z,84.18
2022-11-14T12:58:56.110Z,84.08
2022-11-14T13:01:44.470Z,83.97
2022-11-14T13:04:42.392Z,84.29
2022-11-14T13:07:55.816Z,84.78
2022-11-14T13:10:41.631Z,84.42
2022-11-14T13:13:46.257Z,84.48
2022-11-14T13:16:51.154Z,83.95
2022-11-14T13:20:04.438Z,83.33
2022-11-14T13:22:50.502Z,83.32
2022-11-14T13:25:36.505Z,82.77
2022-11-14T13:28:37.326Z,82.08
2022-11-14T13:31:50.452Z,81.31
2022-11-14T13:34:52.440Z,81.05
2022-11-14T13:37:44.580Z,81.44
2022-11-14T13:40:45.211Z,83.02
2022-11-14T13:43:52.351Z,82.68
2022-11-14T13:46:57.723Z,82.63
2022-11-14T13:50:00.366Z,83.10
2022-11-14T13:52:48.217Z,82.95
2022-11-14T13:55:36.774Z,82.31
2022-11-14T13:58:38.516Z,81.79
2022-11-14T14:01:30.018Z,82.66
2022-11-14T14:04:53.716Z,83.84
2022-11-14T14:07:54.421Z,83.12
2022-11-14T14:11:03.384Z,82.35
2022-11-14T14:14:32.958Z,83.20
2022-11-14T14:17:50.931Z,84.05
2022-11-14T14:20:47.581Z,83.09
2022-11-14T14:23:42.889Z,82.68
2022-11-14T14:26:34.686Z,82.18
2022-11-14T14:29:26.407Z,81.66
2022-11-14T14:32:13.949Z,81.46
2022-11-14T14:35:00.687Z,81.49
2022-11-14T14:37:51.443Z,81.65
2022-11-14T14:40:39.498Z,81.12
2022-11-14T14:43:30.639Z,81.01
2022-11-14T14:46:16.891Z,81.40
2022-11-14T14:49:04.677Z,81.80
2022-11-14T14:51:53.300Z,81.93
2022-11-14T14:54:43.018Z,81.99
2022-11-14T14:57:30.295Z,81.92
2022-11-14T15:00:26.328Z,81.43
2022-11-14T15:03:12.116Z,82.11
2022-11-14T15:06:02.462Z,82.30
2022-11-14T15:08:48.975Z,82.53
2022-11-14T15:11:35.974Z,82.84
2022-11-14T15:14:24.926Z,83.50
2022-11-14T15:17:10.945Z,83.02
2022-11-14T15:19:57.502Z,82.52
2022-11-14T15:22:43.107Z,83.15
2022-11-14T15:25:29.214Z,82.89
2022-11-14T15:28:21.536Z,82.50
2022-11-14T15:31:12.884Z,83.05
2022-11-14T15:34:43.096Z,83.56
2022-11-14T15:37:28.756Z,83.37
2022-11-14T15:40:19.611Z,82.70
2022-11-14T15:43:23.938Z,82.49
2022-11-14T15:46:33.797Z,83.26
2022-11-14T15:49:22.344Z,83.10
2022-11-14T15:52:19.235Z,83.10
2022-11-14T15:55:13.915Z,82.80
2022-11-14T15:58:21.352Z,83.73
2022-11-14T16:01:06.311Z,83.59
2022-11-14T16:03:52.103Z,83.64
2022-11-14T16:06:38.208Z,83.95
2022-11-14T16:09:24.079Z,84.32
2022-11-14T16:12:09.810Z,84.73
2022-11-14T16:14:55.476Z,85.42
2022-11-14T16:17:43.769Z,85.21
2022-11-14T16:20:31.438Z,84.86
2022-11-14T16:23:18.519Z,84.47
2022-11-14T16:26:04.409Z,85.09
2022-11-14T16:28:49.914Z,85.24
2022-11-14T16:31:36.060Z,85.25
2022-11-14T16:34:24.187Z,85.26
2022-11-14T16:37:12.947Z,85.26
2022-11-14T16:39:58.691Z,85.87
2022-11-14T16:42:44.575Z,85.79
2022-11-14T16:45:30.348Z,85.87
2022-11-14T16:48:16.510Z,85.41
2022-11-14T16:51:14.789Z,85.05
2022-11-14T16:54:05.987Z,85.04
2022-11-14T16:56:51.821Z,85.48
2022-11-14T16:59:37.677Z,85.59
2022-11-14T17:02:24.615Z,85.23
2022-11-14T17:05:10.789Z,85.23
2022-11-14T17:07:56.799Z,85.32
2022-11-14T17:10:43.658Z,84.73
2022-11-14T17:13:31.020Z,84.90
2022-11-14T17:16:17.470Z,84.79
2022-11-14T17:19:03.593Z,85.47
2022-11-14T17:21:50.046Z,85.29
2022-11-14T17:24:35.742Z,85.85
2022-11-14T17:27:21.357Z,85.65
2022-11-14T17:30:11.430Z,85.24
2022-11-14T17:32:57.120Z,85.42
2022-11-14T17:35:42.890Z,85.27
2022-11-14T17:38:32.120Z,84.99
2022-11-14T17:41:18.470Z,84.89
2022-11-14T17:44:04.248Z,85.89
2022-11-14T17:46:50.271Z,87.29
2022-11-14T17:49:35.829Z,86.69
2022-11-14T17:52:22.166Z,86.64
2022-11-14T17:55:08.248Z,86.56
2022-11-14T17:57:54.165Z,86.67
2022-11-14T18:00:40.048Z,86.31
2022-11-14T18:03:26.286Z,87.93
2022-11-14T18:06:19.155Z,87.64
2022-11-14T18:09:08.104Z,87.66
2022-11-14T18:11:56.196Z,87.67
2022-11-14T18:14:42.280Z,87.70
2022-11-14T18:17:27.823Z,87.63
2022-11-14T18:20:13.750Z,87.29
2022-11-14T18:22:59.505Z,87.39
2022-11-14T18:25:45.252Z,87.04
2022-11-14T18:28:31.522Z,87.14
2022-11-14T18:31:17.780Z,87.13
2022-11-14T18:34:04.120Z,87.28
2022-11-14T18:36:49.857Z,87.25
2022-11-14T18:39:35.669Z,87.14
2022-11-14T18:42:21.627Z,87.33
2022-11-14T18:45:07.991Z,87.46
2022-11-14T18:47:53.526Z,87.13
2022-11-14T18:50:39.627Z,87.23
2022-11-14T18:53:26.032Z,87.01
2022-11-14T18:56:14.122Z,87.05
2022-11-14T18:59:00.533Z,86.78
2022-11-14T19:01:46.578Z,86.33
2022-11-14T19:04:32.491Z,85.79
2022-11-14T19:07:18.865Z,84.99
2022-11-14T19:10:04.912Z,85.60
2022-11-14T19:12:50.813Z,86.59
2022-11-14T19:15:36.518Z,86.52
2022-11-14T19:18:22.343Z,86.18
2022-11-14T19:21:08.073Z,85.90
2022-11-14T19:23:54.732Z,85.66
2022-11-14T19:26:40.531Z,85.57
2022-11-14T19:29:26.532Z,85.17
2022-11-14T19:32:12.695Z,85.28
2022-11-14T19:34:59.706Z,85.00
2022-11-14T19:37:45.791Z,85.02
2022-11-14T19:40:31.401Z,85.01
2022-11-14T19:43:19.371Z,85.58
2022-11-14T19:46:06.227Z,85.92
2022-11-14T19:49:02.510Z,85.33
2022-11-14T19:51:49.977Z,84.98
2022-11-14T19:54:36.045Z,85.15
2022-11-14T19:57:21.941Z,84.80
2022-11-14T20:00:08.225Z,84.26
2022-11-14T20:02:54.342Z,84.00
2022-11-14T20:05:40.676Z,83.94
2022-11-14T20:08:26.664Z,84.10
2022-11-14T20:11:12.404Z,84.24
2022-11-14T20:13:59.093Z,84.25
2022-11-14T20:16:45.931Z,84.54
2022-11-14T20:19:31.613Z,84.88
2022-11-14T20:22:18.304Z,84.24
2022-11-14T20:25:04.511Z,83.97
2022-11-14T20:27:50.326Z,83.25
2022-11-14T20:30:40.131Z,84.31
2022-11-14T20:33:26.564Z,85.31
2022-11-14T20:36:15.058Z,86.90
2022-11-14T20:39:00.748Z,86.66
2022-11-14T20:41:47.795Z,87.24
2022-11-14T20:44:44.394Z,88.22
2022-11-14T20:47:30.477Z,88.18
2022-11-14T20:50:16.479Z,87.87
2022-11-14T20:53:02.210Z,88.51
2022-11-14T20:55:53.806Z,88.70
2022-11-14T20:58:41.166Z,88.21
2022-11-14T21:01:27.043Z,86.99
2022-11-14T21:04:13.050Z,88.19
2022-11-14T21:06:59.327Z,87.26
2022-11-14T21:09:45.418Z,87.71
2022-11-14T21:12:30.920Z,87.19
2022-11-14T21:15:16.743Z,86.53
2022-11-14T21:18:02.734Z,85.90
2022-11-14T21:20:48.272Z,86.19
2022-11-14T21:23:34.797Z,86.33
2022-11-14T21:26:22.084Z,85.79
2022-11-14T21:29:12.949Z,86.03
2022-11-14T21:31:58.842Z,85.71
2022-11-14T21:34:45.278Z,85.40
2022-11-14T21:37:30.856Z,85.68
2022-11-14T21:40:16.938Z,85.56
2022-11-14T21:43:03.416Z,84.75
2022-11-14T21:46:17.519Z,83.80
2022-11-14T21:49:03.264Z,84.08
2022-11-14T21:51:48.849Z,84.25
2022-11-14T21:54:34.512Z,84.62
2022-11-14T21:57:20.220Z,84.83
2022-11-14T22:00:08.836Z,85.15
2022-11-14T22:03:17.721Z,85.15
2022-11-14T22:06:04.741Z,84.70
2022-11-14T22:08:54.950Z,84.31
2022-11-14T22:11:40.796Z,84.51
2022-11-14T22:14:26.663Z,84.69
2022-11-14T22:17:12.609Z,85.13
2022-11-14T22:19:58.311Z,85.17
2022-11-14T22:22:43.985Z,85.38
2022-11-14T22:25:29.511Z,85.16
2022-11-14T22:28:15.557Z,85.50
2022-11-14T22:31:10.724Z,85.14
2022-11-14T22:33:58.247Z,85.48
2022-11-14T22:36:44.167Z,85.95
2022-11-14T22:39:29.787Z,86.76
2022-11-14T22:42:15.341Z,87.43
2022-11-14T22:45:01.253Z,88.17
2022-11-14T22:47:47.321Z,89.17
2022-11-14T22:50:32.952Z,89.68
2022-11-14T22:53:18.896Z,89.63
2022-11-14T22:56:06.787Z,89.52
2022-11-14T22:58:52.437Z,89.21
2022-11-14T23:01:37.870Z,89.22
2022-11-14T23:04:23.992Z,89.56
2022-11-14T23:07:09.595Z,89.60
2022-11-14T23:09:55.213Z,89.69
2022-11-14T23:12:41.382Z,89.85
2022-11-14T23:15:27.141Z,89.86
2022-11-14T23:18:12.859Z,89.91
2022-11-14T23:21:07.462Z,89.92
2022-11-14T23:23:54.554Z,89.61
2022-11-14T23:26:40.397Z,88.71
2022-11-14T23:29:26.014Z,87.59
2022-11-14T23:32:11.847Z,87.88
2022-11-14T23:35:01.083Z,87.59
2022-11-14T23:37:46.993Z,88.67
2022-11-14T23:40:32.942Z,88.03
2022-11-14T23:43:18.710Z,88.41
2022-11-14T23:46:04.390Z,88.55
2022-11-14T23:48:51.638Z,89.03
2022-11-14T23:51:37.587Z,89.00
2022-11-14T23:54:23.709Z,89.06
2022-11-14T23:57:10.290Z,89.13
2022-11-14T23:59:56.258Z,88.79
